createdAt,value
2022-08-16T00:02:58.286Z,81.20
2022-08-16T00:08:04.843Z,81.20
2022-08-16T00:13:11.148Z,81.50
2022-08-16T00:18:17.452Z,82.00
2022-08-16T00:23:24.677Z,82.30
2022-08-16T00:28:38.680Z,82.40
2022-08-16T00:33:49.993Z,82.80
2022-08-16T00:38:56.192Z,83.40
2022-08-16T00:44:03.663Z,84.00
2022-08-16T00:49:17.672Z,84.30
2022-08-16T00:54:27.840Z,85.00
2022-08-16T00:59:35.623Z,85.60
2022-08-16T01:04:39.745Z,85.70
2022-08-16T01:10:16.184Z,85.90
2022-08-16T01:15:21.345Z,85.80
2022-08-16T01:20:34.138Z,85.60
2022-08-16T01:25:44.134Z,85.70
2022-08-16T01:30:50.945Z,86.60
2022-08-16T01:35:58.240Z,86.00
2022-08-16T01:41:05.899Z,85.70
2022-08-16T01:46:37.124Z,85.30
2022-08-16T01:51:46.049Z,85.90
2022-08-16T01:56:53.800Z,85.90
2022-08-16T02:02:01.003Z,85.40
2022-08-16T02:07:11.380Z,85.50
2022-08-16T02:12:40.096Z,85.90
2022-08-16T02:17:41.063Z,86.20
2022-08-16T02:22:50.025Z,86.10
2022-08-16T02:27:55.638Z,86.60
2022-08-16T02:33:00.792Z,86.90
2022-08-16T02:38:08.846Z,86.90
2022-08-16T02:43:14.787Z,87.00
2022-08-16T02:48:29.667Z,86.90
2022-08-16T02:53:36.440Z,87.10
2022-08-16T02:58:41.665Z,87.10
2022-08-16T03:04:41.105Z,87.10
2022-08-16T03:09:14.964Z,87.10
2022-08-16T03:14:24.873Z,87.10
2022-08-16T03:19:46.815Z,86.90
2022-08-16T03:24:51.728Z,87.00
2022-08-16T03:29:57.042Z,87.00
2022-08-16T03:35:01.702Z,87.60
2022-08-16T03:40:07.743Z,88.50
2022-08-16T03:45:14.426Z,89.10
2022-08-16T03:50:25.867Z,89.70
2022-08-16T03:55:37.084Z,90.10
2022-08-16T04:00:59.200Z,90.20
2022-08-16T04:06:05.070Z,90.10
2022-08-16T04:11:09.224Z,90.20
2022-08-16T04:16:26.608Z,90.10
2022-08-16T04:21:34.415Z,90.20
2022-08-16T04:26:45.818Z,90.00
2022-08-16T04:31:55.770Z,90.10
2022-08-16T04:37:02.245Z,90.10
2022-08-16T04:42:11.399Z,90.10
2022-08-16T04:47:21.810Z,90.30
2022-08-16T04:52:34.504Z,90.20
2022-08-16T04:57:41.446Z,90.20
2022-08-16T05:02:54.920Z,90.40
2022-08-16T05:08:00.572Z,90.60
2022-08-16T05:13:06.241Z,90.70
2022-08-16T05:18:16.220Z,90.70
2022-08-16T05:23:21.801Z,90.50
2022-08-16T05:28:31.047Z,90.50
2022-08-16T05:33:43.234Z,90.70
2022-08-16T05:38:48.617Z,90.60
2022-08-16T05:43:52.256Z,90.70
2022-08-16T05:49:09.001Z,90.70
2022-08-16T05:54:24.703Z,90.80
2022-08-16T05:59:30.023Z,90.70
2022-08-16T06:04:37.474Z,90.70
2022-08-16T06:09:43.511Z,90.70
2022-08-16T06:14:49.128Z,90.70
2022-08-16T06:19:58.000Z,90.70
2022-08-16T06:25:02.650Z,90.70
2022-08-16T06:30:10.112Z,90.70
2022-08-16T06:35:17.464Z,90.80
2022-08-16T06:40:22.388Z,90.90
2022-08-16T06:45:43.507Z,91.00
2022-08-16T06:50:52.285Z,91.20
2022-08-16T06:55:59.570Z,91.30
2022-08-16T07:01:04.968Z,91.50
2022-08-16T07:06:15.594Z,91.60
2022-08-16T07:11:47.644Z,91.60
2022-08-16T07:16:46.160Z,91.60
2022-08-16T07:21:59.486Z,91.70
2022-08-16T07:27:08.410Z,91.70
2022-08-16T07:32:15.237Z,91.70
2022-08-16T07:37:23.144Z,91.70
2022-08-16T07:42:35.032Z,91.60
2022-08-16T07:47:39.390Z,91.90
2022-08-16T07:52:50.278Z,92.10
2022-08-16T07:57:59.918Z,92.40
2022-08-16T08:03:06.370Z,92.70
2022-08-16T08:08:51.590Z,92.60
2022-08-16T08:13:42.684Z,92.60
2022-08-16T08:18:50.505Z,92.60
2022-08-16T08:24:01.451Z,92.40
2022-08-16T08:29:06.170Z,92.50
2022-08-16T08:34:12.941Z,92.10
2022-08-16T08:39:20.922Z,92.30
2022-08-16T08:44:29.157Z,92.80
2022-08-16T08:49:46.210Z,92.80
2022-08-16T08:54:52.689Z,92.60
2022-08-16T08:59:57.064Z,92.40
2022-08-16T09:05:00.815Z,92.50
2022-08-16T09:10:22.052Z,92.50
2022-08-16T09:15:26.384Z,92.30
2022-08-16T09:20:59.089Z,92.10
2022-08-16T09:26:02.512Z,91.70
2022-08-16T09:31:26.278Z,90.70
2022-08-16T09:36:34.350Z,90.40
2022-08-16T09:41:39.344Z,90.00
2022-08-16T09:46:48.270Z,89.90
2022-08-16T09:51:55.473Z,89.20
2022-08-16T09:57:02.230Z,86.90
2022-08-16T10:02:22.943Z,83.90
2022-08-16T10:07:44.054Z,82.40
2022-08-16T10:13:16.246Z,81.10
2022-08-16T10:18:53.984Z,80.00
2022-08-16T10:23:44.893Z,79.80
2022-08-16T10:28:50.364Z,79.20
2022-08-16T10:33:55.613Z,78.90
2022-08-16T10:38:59.304Z,77.90
2022-08-16T10:44:04.859Z,76.10
2022-08-16T10:49:16.880Z,75.50
2022-08-16T10:54:29.206Z,73.80
2022-08-16T10:59:45.849Z,72.30
2022-08-16T11:05:12.044Z,72.40
2022-08-16T11:10:20.715Z,73.70
2022-08-16T11:15:26.835Z,73.40
2022-08-16T11:20:41.257Z,73.60
2022-08-16T11:31:11.026Z,71.10
2022-08-16T11:36:27.636Z,69.20
2022-08-16T11:41:35.961Z,68.60
2022-08-16T11:46:44.521Z,67.50
2022-08-16T11:51:50.082Z,66.20
2022-08-16T11:56:57.170Z,66.40
2022-08-16T12:02:30.912Z,65.90
2022-08-16T12:07:26.750Z,65.80
2022-08-16T12:12:32.851Z,64.60
2022-08-16T12:17:41.161Z,63.10
2022-08-16T12:22:45.235Z,61.70
2022-08-16T12:27:49.974Z,61.20
2022-08-16T12:32:57.875Z,59.90
2022-08-16T12:38:08.682Z,59.20
2022-08-16T12:43:26.663Z,59.00
2022-08-16T12:48:54.591Z,58.00
2022-08-16T12:53:59.745Z,57.40
2022-08-16T12:59:11.606Z,57.30
2022-08-16T13:04:20.317Z,56.40
2022-08-16T13:09:26.098Z,56.30
2022-08-16T13:14:34.237Z,54.90
2022-08-16T13:25:06.481Z,55.30
2022-08-16T13:30:36.393Z,55.40
2022-08-16T13:35:38.379Z,55.20
2022-08-16T13:40:48.167Z,54.10
2022-08-16T13:45:52.465Z,53.20
2022-08-16T13:51:04.095Z,53.30
2022-08-16T13:56:08.159Z,53.10
2022-08-16T14:01:14.100Z,52.50
2022-08-16T14:06:19.122Z,51.80
2022-08-16T14:11:22.730Z,51.40
2022-08-16T14:16:33.875Z,50.90
2022-08-16T14:21:43.000Z,51.00
2022-08-16T14:26:59.531Z,51.60
2022-08-16T14:32:09.182Z,51.70
2022-08-16T14:37:14.261Z,52.00
2022-08-16T14:42:20.823Z,52.20
2022-08-16T14:47:25.238Z,52.20
2022-08-16T14:52:54.562Z,51.50
2022-08-16T14:58:03.267Z,51.60
2022-08-16T15:03:10.585Z,51.60
2022-08-16T15:08:17.795Z,52.00
2022-08-16T15:13:24.373Z,52.50
2022-08-16T15:18:28.224Z,52.20
2022-08-16T15:23:37.157Z,52.30
2022-08-16T15:28:44.904Z,52.10
2022-08-16T15:33:56.435Z,52.10
2022-08-16T15:39:30.483Z,51.70
2022-08-16T15:44:37.699Z,51.70
2022-08-16T15:49:54.617Z,51.70
2022-08-16T15:55:07.411Z,51.50
2022-08-16T16:00:20.635Z,51.30
2022-08-16T16:05:24.217Z,51.00
2022-08-16T16:10:30.167Z,50.70
2022-08-16T16:15:36.763Z,50.60
2022-08-16T16:20:43.815Z,51.20
2022-08-16T16:25:50.253Z,50.60
2022-08-16T16:30:56.601Z,50.30
2022-08-16T16:36:03.315Z,50.70
2022-08-16T16:41:10.646Z,51.00
2022-08-16T16:46:41.256Z,53.00
2022-08-16T16:51:41.281Z,55.30
2022-08-16T16:56:50.362Z,57.20
2022-08-16T17:01:59.448Z,58.10
2022-08-16T17:07:23.958Z,58.80
2022-08-16T17:12:46.805Z,59.50
2022-08-16T17:18:00.433Z,60.60
2022-08-16T17:23:05.603Z,61.70
2022-08-16T17:28:58.036Z,62.60
2022-08-16T17:33:37.018Z,63.40
2022-08-16T17:38:43.996Z,64.70
2022-08-16T17:43:50.858Z,66.20
2022-08-16T17:48:54.881Z,67.40
2022-08-16T17:54:00.117Z,68.30
2022-08-16T17:59:05.332Z,68.50
2022-08-16T18:04:10.034Z,68.80
2022-08-16T18:09:14.993Z,69.50
2022-08-16T18:14:20.181Z,70.30
2022-08-16T18:19:43.771Z,70.90
2022-08-16T18:24:47.781Z,71.30
2022-08-16T18:29:53.528Z,71.50
2022-08-16T18:34:57.991Z,71.80
2022-08-16T18:40:01.695Z,72.80
2022-08-16T18:45:08.232Z,72.60
2022-08-16T18:50:11.805Z,73.00
2022-08-16T18:55:15.453Z,73.00
2022-08-16T19:00:25.394Z,73.20
2022-08-16T19:05:34.094Z,73.70
2022-08-16T19:10:39.285Z,74.30
2022-08-16T19:15:45.843Z,74.90
2022-08-16T19:20:50.270Z,76.20
2022-08-16T19:25:54.860Z,77.10
2022-08-16T19:31:03.641Z,77.40
2022-08-16T19:36:07.691Z,77.20
2022-08-16T19:41:15.170Z,77.60
2022-08-16T19:46:20.279Z,77.60
2022-08-16T19:51:23.949Z,77.70
2022-08-16T19:56:27.569Z,78.10
2022-08-16T20:01:32.537Z,78.30
2022-08-16T20:06:38.670Z,78.40
2022-08-16T20:11:42.551Z,78.50
2022-08-16T20:16:47.698Z,79.10
2022-08-16T20:21:51.447Z,79.90
2022-08-16T20:26:55.144Z,80.20
2022-08-16T20:32:00.188Z,80.20
2022-08-16T20:37:05.168Z,80.30
2022-08-16T20:42:09.003Z,80.50
2022-08-16T20:47:14.746Z,80.90
2022-08-16T20:52:20.145Z,81.20
2022-08-16T20:57:24.009Z,81.60
2022-08-16T21:02:28.960Z,81.90
2022-08-16T21:07:32.545Z,82.10
2022-08-16T21:12:38.027Z,82.30
2022-08-16T21:17:43.506Z,82.60
2022-08-16T21:22:53.756Z,82.70
2022-08-16T21:28:35.586Z,83.00
2022-08-16T21:33:24.162Z,83.20
2022-08-16T21:38:30.224Z,83.10
2022-08-16T21:43:34.679Z,83.70
2022-08-16T21:48:39.730Z,84.30
2022-08-16T21:53:45.620Z,84.60
2022-08-16T21:58:52.685Z,84.80
2022-08-16T22:04:09.622Z,84.90
2022-08-16T22:09:21.985Z,85.00
2022-08-16T22:14:25.599Z,84.90
2022-08-16T22:19:30.962Z,84.40
2022-08-16T22:24:34.639Z,84.80
2022-08-16T22:29:38.270Z,85.30
2022-08-16T22:34:47.261Z,85.20
2022-08-16T22:39:50.995Z,85.50
2022-08-16T22:44:55.392Z,85.50
2022-08-16T22:50:00.377Z,85.70
2022-08-16T22:55:04.974Z,86.20
2022-08-16T23:00:10.862Z,86.20
2022-08-16T23:05:18.712Z,86.70
2022-08-16T23:10:23.149Z,86.60
2022-08-16T23:15:28.284Z,86.70
2022-08-16T23:20:34.709Z,87.00
2022-08-16T23:25:40.084Z,87.00
2022-08-16T23:30:43.771Z,87.20
2022-08-16T23:35:52.883Z,87.30
2022-08-16T23:40:57.862Z,87.60
2022-08-16T23:46:04.710Z,88.00
2022-08-16T23:51:12.259Z,88.10
2022-08-16T23:56:18.433Z,88.00
